Time;durP1;ratioP1;P1;durP2;ratioP2;P2;SDS_P1;SDS_P2;PMS_P1;PMS_P2;Temp;Humidity;BMP_temperature;BMP_pressure;BME280_temperature;BME280_humidity;BME280_pressure;Samples;Min_cycle;Max_cycle;Signal;HPM_P1;HPM_P2
2023/03/09 00:01:29;;;;;;;1.40;0.10;;;11.80;78.00;;;;;;4975523;28;92681;-70
2023/03/09 00:03:55;;;;;;;1.10;0.20;;;11.70;78.30;;;;;;4976667;28;92399;-70
2023/03/09 00:06:21;;;;;;;0.93;0.10;;;11.70;78.90;;;;;;4979446;28;92677;-70
2023/03/09 00:08:47;;;;;;;1.38;0.10;;;11.70;79.00;;;;;;4976128;28;92555;-71
2023/03/09 00:11:15;;;;;;;1.00;0.20;;;11.50;78.90;;;;;;4976422;28;92425;-70
2023/03/09 00:13:41;;;;;;;3.22;0.43;;;11.50;79.10;;;;;;4974387;28;93614;-71
2023/03/09 00:16:22;;;;;;;1.48;0.15;;;11.50;80.10;;;;;;4990243;28;92766;-72
2023/03/09 00:18:48;;;;;;;0.50;0.10;;;11.50;79.20;;;;;;4976318;28;93627;-70
2023/03/09 00:21:34;;;;;;;0.82;0.10;;;11.50;79.20;;;;;;4975700;28;93565;-71
2023/03/09 00:24:02;;;;;;;1.65;0.20;;;11.50;79.80;;;;;;4971486;28;92038;-71
2023/03/09 00:26:28;;;;;;;0.80;0.15;;;11.50;78.50;;;;;;4976043;28;92687;-71
2023/03/09 00:28:53;;;;;;;1.00;0.17;;;11.60;79.00;;;;;;4990339;28;92622;-73
2023/03/09 00:31:19;;;;;;;1.63;0.20;;;11.50;78.90;;;;;;4984314;28;92368;-71
2023/03/09 00:33:48;;;;;;;1.40;0.20;;;11.50;78.90;;;;;;4984329;28;92234;-71
2023/03/09 00:36:15;;;;;;;0.98;0.10;;;11.50;79.70;;;;;;4975457;28;93999;-72
2023/03/09 00:38:40;;;;;;;1.58;0.20;;;11.50;79.30;;;;;;4982959;28;92923;-71
2023/03/09 00:41:06;;;;;;;0.80;0.10;;;11.40;80.20;;;;;;4972884;28;92439;-71
2023/03/09 00:43:32;;;;;;;2.33;0.17;;;11.40;80.20;;;;;;4976078;28;92393;-72
2023/03/09 00:45:57;;;;;;;1.55;0.20;;;11.30;80.30;;;;;;4978067;28;94868;-71
2023/03/09 00:48:30;;;;;;;1.95;0.30;;;11.30;81.00;;;;;;5020132;28;80424;-72
2023/03/09 00:50:55;;;;;;;1.25;0.10;;;11.30;81.20;;;;;;5010742;28;81064;-73
2023/03/09 00:53:21;;;;;;;1.75;0.17;;;11.20;81.00;;;;;;5018330;28;80618;-72
2023/03/09 00:55:47;;;;;;;0.70;0.10;;;11.20;80.50;;;;;;5014462;28;80290;-73
2023/03/09 00:58:15;;;;;;;0.82;0.15;;;11.10;81.20;;;;;;5013028;28;81294;-72
2023/03/09 01:00:41;;;;;;;2.38;0.20;;;11.10;80.80;;;;;;4989504;28;80709;-72
2023/03/09 01:03:06;;;;;;;0.88;0.10;;;11.10;80.40;;;;;;5011864;28;81251;-71
2023/03/09 01:05:32;;;;;;;3.95;0.28;;;11.00;80.20;;;;;;5018587;28;80507;-70
2023/03/09 01:07:58;;;;;;;1.42;0.20;;;11.00;80.50;;;;;;5017898;28;80715;-71
2023/03/09 01:10:23;;;;;;;0.60;0.10;;;11.00;81.00;;;;;;5000114;28;80671;-73
2023/03/09 01:12:49;;;;;;;0.73;0.10;;;11.10;80.90;;;;;;4994002;28;81760;-71
2023/03/09 01:15:15;;;;;;;1.52;0.20;;;11.20;80.40;;;;;;4993751;28;80314;-70
2023/03/09 01:17:42;;;;;;;0.60;0.10;;;11.30;78.90;;;;;;5014129;28;81284;-71
2023/03/09 01:20:09;;;;;;;0.98;0.10;;;11.40;78.80;;;;;;4999838;28;81731;-72
2023/03/09 01:22:34;;;;;;;1.30;0.13;;;11.40;78.50;;;;;;5004863;28;82094;-71
2023/03/09 01:25:00;;;;;;;1.00;0.13;;;11.40;78.30;;;;;;5010509;28;80605;-71
2023/03/09 01:27:26;;;;;;;0.98;0.10;;;11.50;78.40;;;;;;5017422;28;81613;-71
2023/03/09 01:29:51;;;;;;;0.95;0.15;;;11.40;78.80;;;;;;5006091;28;80658;-71
2023/03/09 01:32:17;;;;;;;1.30;0.20;;;11.40;78.40;;;;;;5015370;28;80701;-71
2023/03/09 01:34:43;;;;;;;0.80;0.20;;;11.40;78.60;;;;;;5002391;28;80809;-73
2023/03/09 01:37:08;;;;;;;1.10;0.20;;;11.40;78.90;;;;;;5010547;28;81694;-72
2023/03/09 01:39:34;;;;;;;1.70;0.30;;;11.30;80.00;;;;;;4995607;28;80566;-72
2023/03/09 01:42:00;;;;;;;4.40;0.30;;;11.20;79.80;;;;;;5003403;28;80708;-71
2023/03/09 01:44:26;;;;;;;1.20;0.30;;;11.10;80.40;;;;;;5011732;28;81092;-70
2023/03/09 01:46:55;;;;;;;1.63;0.30;;;11.00;80.00;;;;;;4984668;28;82318;-69
2023/03/09 01:49:27;;;;;;;1.25;0.30;;;11.10;80.20;;;;;;4997386;28;81351;-71
2023/03/09 01:52:17;;;;;;;1.70;0.22;;;11.10;79.40;;;;;;4988229;28;80436;-71
2023/03/09 01:55:03;;;;;;;5.78;0.22;;;11.20;79.30;;;;;;4995278;28;80359;-71
2023/03/09 01:57:52;;;;;;;1.55;0.22;;;11.20;79.30;;;;;;5016500;28;81416;-70
2023/03/09 02:00:24;;;;;;;1.40;0.20;;;11.30;78.40;;;;;;4990083;28;80725;-70
2023/03/09 02:03:00;;;;;;;2.75;0.35;;;11.30;78.20;;;;;;4983212;28;80623;-70
2023/03/09 02:05:41;;;;;;;1.20;0.20;;;11.40;77.60;;;;;;4982096;28;80410;-72
2023/03/09 02:08:09;;;;;;;1.02;0.20;;;11.40;76.00;;;;;;4982868;28;80904;-71
2023/03/09 02:10:44;;;;;;;2.08;0.30;;;11.50;75.90;;;;;;4981731;28;81069;-72
2023/03/09 02:13:14;;;;;;;1.20;0.10;;;11.50;75.60;;;;;;4982954;28;81300;-72
2023/03/09 02:15:41;;;;;;;1.33;0.20;;;11.60;74.70;;;;;;4982921;28;80618;-71
2023/03/09 02:18:07;;;;;;;2.13;0.20;;;11.70;74.20;;;;;;4983090;28;81378;-71
2023/03/09 02:20:54;;;;;;;1.33;0.20;;;11.60;76.30;;;;;;4978977;28;80498;-72
2023/03/09 02:23:34;;;;;;;0.88;0.22;;;11.60;75.50;;;;;;4976114;28;80630;-71
2023/03/09 02:26:24;;;;;;;0.68;0.10;;;11.40;75.20;;;;;;4988812;28;80750;-72
2023/03/09 02:28:50;;;;;;;0.80;0.20;;;11.50;74.90;;;;;;4970230;28;81459;-70
2023/03/09 02:31:18;;;;;;;1.95;0.20;;;11.50;75.60;;;;;;4970731;28;81961;-70
2023/03/09 02:33:43;;;;;;;2.20;0.10;;;11.40;75.00;;;;;;4965940;28;81296;-71
2023/03/09 02:36:09;;;;;;;1.45;0.20;;;11.40;75.30;;;;;;4972127;28;80774;-71
2023/03/09 02:38:35;;;;;;;1.08;0.20;;;11.40;76.00;;;;;;4981416;28;81943;-72
2023/03/09 02:41:03;;;;;;;1.77;0.30;;;11.40;75.00;;;;;;4981001;28;81038;-71
2023/03/09 02:43:36;;;;;;;1.95;0.20;;;11.40;74.90;;;;;;4980769;28;80762;-70
2023/03/09 02:46:02;;;;;;;1.10;0.10;;;11.40;75.00;;;;;;4981752;28;80600;-70
2023/03/09 02:48:27;;;;;;;1.13;0.13;;;11.60;74.50;;;;;;4973929;28;82567;-70
2023/03/09 02:50:53;;;;;;;1.30;0.10;;;11.50;75.00;;;;;;4996007;28;81412;-71
2023/03/09 02:53:19;;;;;;;0.93;0.10;;;11.60;74.40;;;;;;5002342;28;81299;-71
2023/03/09 02:55:45;;;;;;;2.63;0.10;;;11.70;74.80;;;;;;4973968;28;80535;-72
2023/03/09 02:58:11;;;;;;;0.30;0.00;;;11.80;75.70;;;;;;4976047;28;81961;-72
2023/03/09 03:00:36;;;;;;;0.60;0.00;;;11.90;75.90;;;;;;4980610;28;80775;-71
2023/03/09 03:03:02;;;;;;;0.73;0.00;;;11.90;74.80;;;;;;4982444;28;80696;-72
2023/03/09 03:05:28;;;;;;;0.65;0.00;;;11.90;74.00;;;;;;4997968;28;80511;-73
2023/03/09 03:07:53;;;;;;;0.43;0.00;;;12.10;73.20;;;;;;4968686;28;80830;-70
2023/03/09 03:10:19;;;;;;;1.20;0.00;;;12.20;74.70;;;;;;4975588;28;80590;-72
2023/03/09 03:12:45;;;;;;;3.60;0.00;;;12.30;75.50;;;;;;4973635;28;80516;-71
2023/03/09 03:15:11;;;;;;;0.40;0.00;;;12.30;76.30;;;;;;4977645;28;80872;-72
2023/03/09 03:17:37;;;;;;;0.90;0.00;;;12.30;76.50;;;;;;4961982;28;82292;-71
2023/03/09 03:20:05;;;;;;;1.35;0.00;;;12.20;77.40;;;;;;4979690;28;81958;-70
2023/03/09 03:22:31;;;;;;;0.15;0.00;;;12.10;77.40;;;;;;4982207;28;80894;-71
2023/03/09 03:24:57;;;;;;;0.50;0.00;;;12.10;78.50;;;;;;4988564;28;80434;-70
2023/03/09 03:27:22;;;;;;;0.32;0.00;;;12.00;77.40;;;;;;4984236;28;80406;-71
2023/03/09 03:29:51;;;;;;;0.20;0.00;;;12.10;78.60;;;;;;4975808;28;81214;-71
2023/03/09 03:32:17;;;;;;;0.38;0.00;;;12.00;78.10;;;;;;4981966;28;80553;-74
2023/03/09 03:34:42;;;;;;;1.23;0.10;;;12.00;76.70;;;;;;4982020;28;80747;-71
2023/03/09 03:37:08;;;;;;;0.65;0.00;;;12.00;76.20;;;;;;4980143;28;81499;-72
2023/03/09 03:39:34;;;;;;;0.10;0.00;;;12.10;76.40;;;;;;4992717;28;80746;-73
2023/03/09 03:41:59;;;;;;;1.52;0.00;;;12.10;74.80;;;;;;4986975;28;80964;-71
2023/03/09 03:44:25;;;;;;;0.32;0.00;;;12.00;75.10;;;;;;4980808;28;80670;-71
2023/03/09 03:46:51;;;;;;;0.30;0.00;;;12.10;75.20;;;;;;4971601;28;81380;-71
2023/03/09 03:49:17;;;;;;;0.55;0.00;;;12.10;74.60;;;;;;4981154;28;81232;-71
2023/03/09 03:51:42;;;;;;;0.28;0.00;;;12.10;74.90;;;;;;4981645;28;81692;-71
2023/03/09 03:54:08;;;;;;;0.55;0.00;;;12.20;74.50;;;;;;4989642;28;80469;-71
2023/03/09 03:56:34;;;;;;;0.63;0.00;;;12.20;74.50;;;;;;4981391;28;81290;-71
2023/03/09 03:58:59;;;;;;;0.30;0.00;;;12.20;74.80;;;;;;4981236;28;81009;-71
2023/03/09 04:01:25;;;;;;;2.78;0.00;;;12.20;75.50;;;;;;4980458;28;80987;-72
2023/03/09 04:03:51;;;;;;;0.98;0.00;;;12.20;75.90;;;;;;4978893;28;80458;-72
2023/03/09 04:06:17;;;;;;;3.72;0.15;;;12.10;75.70;;;;;;4981031;28;81592;-71
2023/03/09 04:08:43;;;;;;;1.08;0.00;;;12.00;76.30;;;;;;4981773;28;81240;-71
2023/03/09 04:11:09;;;;;;;0.85;0.10;;;12.00;76.50;;;;;;4981362;28;80934;-70
2023/03/09 04:13:35;;;;;;;1.80;0.10;;;11.90;76.70;;;;;;4989971;28;80799;-71
2023/03/09 04:16:01;;;;;;;4.28;0.10;;;12.00;78.10;;;;;;4981999;28;82057;-70
2023/03/09 04:18:27;;;;;;;0.95;0.00;;;11.90;78.00;;;;;;4974552;28;81221;-70
2023/03/09 04:20:53;;;;;;;0.93;0.00;;;11.90;78.50;;;;;;4968727;28;80327;-70
2023/03/09 04:23:18;;;;;;;0.50;0.00;;;11.90;79.10;;;;;;4964006;28;80621;-71
2023/03/09 04:25:57;;;;;;;0.85;0.08;;;11.70;79.00;;;;;;4972545;28;81230;-71
2023/03/09 04:28:23;;;;;;;0.77;0.00;;;11.80;78.60;;;;;;4968500;28;81043;-72
2023/03/09 04:30:48;;;;;;;0.20;0.00;;;11.80;77.60;;;;;;4974578;28;80839;-72
2023/03/09 04:33:14;;;;;;;1.33;0.13;;;11.90;77.10;;;;;;4995206;28;80813;-72
2023/03/09 04:35:42;;;;;;;2.15;0.00;;;11.90;77.50;;;;;;4974746;28;82120;-70
2023/03/09 04:38:08;;;;;;;0.28;0.00;;;11.90;78.80;;;;;;4964356;28;82481;-72
2023/03/09 04:40:34;;;;;;;1.65;0.00;;;11.90;78.40;;;;;;4972218;28;80963;-72
2023/03/09 04:42:59;;;;;;;0.60;0.00;;;12.00;78.70;;;;;;4985403;28;80548;-70
2023/03/09 04:45:25;;;;;;;0.43;0.00;;;11.90;78.90;;;;;;4981386;28;81424;-71
2023/03/09 04:47:50;;;;;;;1.10;0.03;;;11.90;79.00;;;;;;4985646;28;80710;-71
2023/03/09 04:50:16;;;;;;;1.55;0.00;;;11.90;79.20;;;;;;5001449;28;81195;-73
2023/03/09 04:52:42;;;;;;;0.85;0.20;;;11.90;79.80;;;;;;4980535;28;81763;-73
2023/03/09 04:55:08;;;;;;;0.90;0.00;;;11.80;80.50;;;;;;4971736;28;82404;-71
2023/03/09 04:57:33;;;;;;;3.58;0.10;;;11.80;81.20;;;;;;4984507;28;81774;-72
2023/03/09 04:59:59;;;;;;;2.40;0.10;;;11.80;81.70;;;;;;4991982;28;82105;-71
2023/03/09 05:02:28;;;;;;;1.35;0.00;;;11.70;82.20;;;;;;4978956;28;83753;-72
2023/03/09 05:04:54;;;;;;;1.85;0.00;;;11.70;83.00;;;;;;4980223;28;84032;-71
2023/03/09 05:07:20;;;;;;;1.08;0.20;;;11.60;83.20;;;;;;4972710;28;83209;-72
2023/03/09 05:09:45;;;;;;;3.33;0.10;;;11.60;84.20;;;;;;4977148;28;82654;-72
2023/03/09 05:12:11;;;;;;;1.00;0.10;;;11.60;86.40;;;;;;4971146;28;83221;-71
2023/03/09 05:14:37;;;;;;;1.52;0.10;;;11.40;88.70;;;;;;4980265;28;83188;-70
2023/03/09 05:17:03;;;;;;;2.58;0.20;;;11.30;90.50;;;;;;4977812;28;82836;-71
2023/03/09 05:19:29;;;;;;;3.80;0.22;;;11.20;91.20;;;;;;4980981;28;82459;-70
2023/03/09 05:21:55;;;;;;;1.73;0.10;;;11.20;91.50;;;;;;4984676;28;81215;-71
2023/03/09 05:24:21;;;;;;;1.80;0.10;;;11.20;91.80;;;;;;4980191;28;82662;-70
2023/03/09 05:26:47;;;;;;;1.48;0.10;;;10.90;92.20;;;;;;4970029;28;83095;-71
2023/03/09 05:29:13;;;;;;;1.60;0.10;;;10.80;92.00;;;;;;4966324;28;83500;-71
2023/03/09 05:31:38;;;;;;;1.55;0.10;;;10.70;92.40;;;;;;4968961;28;82779;-70
2023/03/09 05:34:04;;;;;;;0.47;0.00;;;10.60;92.50;;;;;;4977643;28;82471;-71
2023/03/09 05:36:31;;;;;;;0.47;0.00;;;10.50;92.30;;;;;;4991200;28;83479;-71
2023/03/09 05:38:56;;;;;;;0.40;0.00;;;10.40;92.90;;;;;;4973986;28;82560;-71
2023/03/09 05:41:22;;;;;;;0.60;0.00;;;10.50;93.30;;;;;;4993706;28;82205;-74
2023/03/09 05:43:48;;;;;;;1.23;0.00;;;10.40;93.20;;;;;;4984015;28;82666;-71
2023/03/09 05:46:16;;;;;;;1.15;0.00;;;10.50;93.10;;;;;;4974045;28;82229;-71
2023/03/09 05:48:42;;;;;;;1.65;0.20;;;10.40;92.90;;;;;;4976205;28;82421;-72
2023/03/09 05:51:09;;;;;;;0.05;0.00;;;10.40;92.40;;;;;;4973650;28;82429;-71
2023/03/09 05:53:36;;;;;;;0.43;0.13;;;10.40;92.20;;;;;;4977186;28;83309;-71
2023/03/09 05:56:03;;;;;;;1.15;0.00;;;10.40;92.30;;;;;;4981112;28;83399;-70
2023/03/09 05:58:29;;;;;;;1.45;0.00;;;10.40;92.40;;;;;;4980311;28;84313;-70
2023/03/09 06:00:56;;;;;;;1.63;0.05;;;10.40;92.30;;;;;;4980083;28;82549;-71
2023/03/09 06:03:22;;;;;;;3.25;0.10;;;10.50;92.60;;;;;;4988089;28;83028;-71
2023/03/09 06:05:48;;;;;;;2.08;0.00;;;10.50;92.10;;;;;;4992516;28;82288;-71
2023/03/09 06:08:13;;;;;;;1.77;0.10;;;10.60;91.90;;;;;;4987995;28;82390;-70
2023/03/09 06:10:39;;;;;;;2.25;0.10;;;10.60;91.40;;;;;;5001737;28;82193;-70
2023/03/09 06:13:05;;;;;;;0.45;0.00;;;10.60;91.60;;;;;;4993540;28;83161;-71
2023/03/09 06:15:32;;;;;;;1.48;0.00;;;10.60;91.40;;;;;;4976407;28;82740;-72
2023/03/09 06:17:57;;;;;;;0.40;0.00;;;10.60;91.40;;;;;;4971127;28;85303;-71
2023/03/09 06:20:23;;;;;;;1.55;0.00;;;10.70;91.20;;;;;;4975140;28;83849;-70
2023/03/09 06:22:49;;;;;;;5.47;0.10;;;10.70;91.50;;;;;;4977934;28;83577;-69
2023/03/09 06:25:15;;;;;;;1.35;0.00;;;10.70;91.50;;;;;;4977556;28;82453;-71
2023/03/09 06:27:41;;;;;;;1.63;0.10;;;10.80;91.80;;;;;;4980061;28;83774;-70
2023/03/09 06:30:09;;;;;;;4.47;0.00;;;10.80;92.50;;;;;;4983558;28;82422;-71
2023/03/09 06:32:35;;;;;;;1.38;0.10;;;10.80;90.80;;;;;;4976475;28;83895;-70
2023/03/09 06:35:01;;;;;;;2.70;0.03;;;10.80;90.80;;;;;;4971816;28;82863;-70
2023/03/09 06:37:27;;;;;;;10.90;4.07;;;10.80;91.30;;;;;;4979377;28;82495;-69
2023/03/09 06:39:53;;;;;;;21.58;7.75;;;10.90;91.30;;;;;;4977548;28;82888;-71
2023/03/09 06:42:18;;;;;;;7.72;2.83;;;10.80;91.50;;;;;;4990966;28;83716;-70
2023/03/09 06:44:44;;;;;;;4.53;1.20;;;10.90;91.20;;;;;;4982152;28;83833;-69
2023/03/09 06:47:11;;;;;;;3.25;0.43;;;10.90;91.10;;;;;;4978673;28;82121;-69
2023/03/09 06:49:37;;;;;;;1.70;0.20;;;10.90;91.10;;;;;;4957722;28;84087;-71
2023/03/09 06:52:03;;;;;;;1.95;0.05;;;10.90;91.40;;;;;;4958096;28;83519;-70
2023/03/09 06:54:28;;;;;;;0.57;0.00;;;10.80;92.00;;;;;;4974604;28;82801;-69
2023/03/09 06:56:54;;;;;;;0.22;0.00;;;10.80;92.40;;;;;;4959792;28;83946;-71
2023/03/09 06:59:20;;;;;;;1.00;0.10;;;10.80;92.50;;;;;;4956654;28;83303;-71
2023/03/09 07:01:46;;;;;;;0.63;0.10;;;10.80;92.50;;;;;;4955150;28;84330;-72
2023/03/09 07:04:11;;;;;;;4.20;0.10;;;10.80;92.40;;;;;;4960733;28;84608;-70
2023/03/09 07:06:37;;;;;;;1.95;0.20;;;10.80;92.50;;;;;;4964038;28;84807;-70
2023/03/09 07:09:03;;;;;;;0.55;0.00;;;10.70;92.90;;;;;;4966209;28;82629;-70
2023/03/09 07:11:29;;;;;;;6.70;0.28;;;10.60;92.90;;;;;;4956227;28;82810;-70
2023/03/09 07:13:55;;;;;;;4.22;0.28;;;10.60;93.20;;;;;;4954272;28;83403;-69
2023/03/09 07:16:22;;;;;;;3.47;0.10;;;10.60;92.80;;;;;;4962053;28;82187;-69
2023/03/09 07:18:48;;;;;;;5.97;0.43;;;10.50;93.00;;;;;;4972191;28;82528;-70
2023/03/09 07:21:14;;;;;;;1.77;0.10;;;10.50;93.20;;;;;;4975587;28;83730;-69
2023/03/09 07:23:40;;;;;;;1.67;0.03;;;10.40;93.20;;;;;;4974695;28;82919;-69
2023/03/09 07:26:05;;;;;;;4.20;0.10;;;10.40;91.80;;;;;;4967696;28;82261;-70
2023/03/09 07:28:32;;;;;;;6.70;0.10;;;10.40;91.50;;;;;;4967431;28;84024;-69
2023/03/09 07:30:58;;;;;;;1.77;0.10;;;10.50;91.60;;;;;;4975377;28;84905;-69
2023/03/09 07:33:24;;;;;;;2.35;0.10;;;10.50;91.10;;;;;;4975419;28;83831;-71
2023/03/09 07:35:50;;;;;;;3.92;0.10;;;10.60;90.60;;;;;;4975442;28;82500;-70
2023/03/09 07:38:15;;;;;;;0.35;0.00;;;10.60;89.60;;;;;;4985188;28;82012;-69
2023/03/09 07:40:41;;;;;;;3.97;0.00;;;10.60;87.20;;;;;;4970199;28;83132;-69
2023/03/09 07:43:10;;;;;;;1.35;0.10;;;10.70;89.20;;;;;;4977242;28;82507;-71
2023/03/09 07:45:38;;;;;;;0.90;0.00;;;10.70;87.90;;;;;;4975243;28;82305;-70
2023/03/09 07:48:04;;;;;;;0.65;0.00;;;10.70;87.60;;;;;;4979076;28;81735;-71
2023/03/09 07:50:30;;;;;;;1.88;0.13;;;10.70;86.90;;;;;;4980450;28;84371;-71
2023/03/09 07:52:57;;;;;;;2.25;0.00;;;10.70;87.40;;;;;;4970783;28;82736;-70
2023/03/09 07:55:23;;;;;;;0.93;0.03;;;10.70;84.50;;;;;;4972446;28;84480;-68
2023/03/09 07:57:49;;;;;;;0.93;0.00;;;10.70;85.70;;;;;;4998469;28;82268;-72
2023/03/09 08:00:20;;;;;;;1.92;0.00;;;10.70;84.40;;;;;;4997501;28;82350;-70
2023/03/09 08:02:46;;;;;;;0.30;0.00;;;10.70;85.20;;;;;;4973173;28;82627;-70
2023/03/09 08:05:13;;;;;;;0.82;0.00;;;10.80;84.80;;;;;;4984944;28;83928;-71
2023/03/09 08:07:42;;;;;;;0.63;0.00;;;10.70;84.60;;;;;;4981819;28;83080;-70
2023/03/09 08:10:08;;;;;;;0.80;0.00;;;10.70;84.20;;;;;;4985571;28;85866;-71
2023/03/09 08:12:34;;;;;;;0.30;0.00;;;10.80;84.40;;;;;;4984138;28;81595;-70
2023/03/09 08:15:00;;;;;;;0.43;0.00;;;10.90;84.00;;;;;;4983888;28;82290;-70
2023/03/09 08:17:25;;;;;;;0.22;0.00;;;10.80;83.80;;;;;;4975755;28;83888;-70
2023/03/09 08:19:51;;;;;;;0.50;0.00;;;10.80;83.30;;;;;;4981457;28;84507;-73
2023/03/09 08:22:17;;;;;;;1.45;0.00;;;10.80;82.80;;;;;;4982106;28;83060;-71
2023/03/09 08:24:43;;;;;;;0.47;0.00;;;10.90;83.70;;;;;;4980696;28;82243;-70
2023/03/09 08:27:09;;;;;;;2.00;0.00;;;10.90;84.60;;;;;;4980607;28;82673;-73
2023/03/09 08:29:35;;;;;;;0.88;0.10;;;11.00;82.90;;;;;;4989024;28;82487;-70
2023/03/09 08:32:05;;;;;;;0.73;0.00;;;11.00;81.40;;;;;;4999969;28;83446;-70
2023/03/09 08:34:31;;;;;;;3.17;0.03;;;11.10;82.90;;;;;;4995058;28;82151;-70
2023/03/09 08:36:57;;;;;;;0.85;0.00;;;11.20;81.50;;;;;;4976289;28;81763;-70
2023/03/09 08:39:23;;;;;;;3.90;0.10;;;11.20;81.20;;;;;;4980462;28;83037;-69
2023/03/09 08:41:48;;;;;;;1.73;0.10;;;11.30;81.20;;;;;;4980323;28;82855;-71
2023/03/09 08:44:14;;;;;;;2.80;0.10;;;11.40;80.70;;;;;;4979845;28;83194;-72
2023/03/09 08:46:39;;;;;;;2.20;0.20;;;11.50;79.60;;;;;;4979562;28;82614;-71
2023/03/09 08:49:05;;;;;;;3.03;0.20;;;11.70;78.70;;;;;;4977286;28;83107;-70
2023/03/09 08:51:31;;;;;;;2.88;0.10;;;11.90;78.00;;;;;;4992663;28;82818;-71
2023/03/09 08:53:56;;;;;;;1.85;0.10;;;12.10;75.10;;;;;;4968781;28;82318;-70
2023/03/09 08:56:22;;;;;;;6.45;0.30;;;12.30;74.30;;;;;;4979417;28;82382;-72
2023/03/09 08:58:48;;;;;;;5.57;0.63;;;12.40;74.10;;;;;;4990665;28;83451;-70
2023/03/09 09:01:13;;;;;;;4.28;0.10;;;12.40;74.80;;;;;;5000194;28;83012;-70
2023/03/09 09:03:39;;;;;;;2.20;0.10;;;12.30;76.80;;;;;;4999678;28;82286;-71
2023/03/09 09:06:14;;;;;;;1.63;0.10;;;12.30;76.70;;;;;;5000341;28;82070;-71
2023/03/09 09:08:39;;;;;;;1.90;0.10;;;12.40;73.90;;;;;;4984442;28;83736;-72
2023/03/09 09:11:10;;;;;;;7.85;0.98;;;12.50;72.90;;;;;;4998387;28;83755;-70
2023/03/09 09:13:37;;;;;;;3.85;0.55;;;12.80;75.20;;;;;;4991017;28;81977;-71
2023/03/09 09:16:05;;;;;;;5.20;0.30;;;13.50;73.10;;;;;;4983159;28;82698;-71
2023/03/09 09:18:32;;;;;;;1.48;0.13;;;13.80;74.70;;;;;;4983083;28;82837;-71
2023/03/09 09:20:58;;;;;;;2.80;0.40;;;14.10;74.30;;;;;;4983247;28;82845;-70
2023/03/09 09:23:24;;;;;;;2.30;0.28;;;14.30;74.40;;;;;;4983363;28;82092;-71
2023/03/09 09:25:56;;;;;;;4.70;0.30;;;14.60;72.90;;;;;;4981243;28;82122;-71
2023/03/09 09:28:23;;;;;;;2.45;0.20;;;15.00;71.40;;;;;;4996554;28;83098;-69
2023/03/09 09:30:57;;;;;;;21.42;6.93;;;15.20;72.50;;;;;;5003360;28;83673;-71
2023/03/09 09:33:23;;;;;;;4.88;0.20;;;15.20;67.80;;;;;;5002828;28;83531;-70
2023/03/09 09:36:06;;;;;;;2.45;0.30;;;15.20;67.00;;;;;;5002958;28;82388;-71
2023/03/09 09:38:35;;;;;;;2.00;0.40;;;15.10;67.50;;;;;;4984976;28;82099;-69
2023/03/09 09:41:19;;;;;;;;;;;15.00;67.50;;;;;;4986177;28;83098;-72
2023/03/09 09:43:48;;;;;;;4.53;0.30;;;14.80;66.50;;;;;;4986441;28;82482;-71
2023/03/09 09:46:16;;;;;;;10.73;2.00;;;14.60;66.60;;;;;;4979505;28;82054;-70
2023/03/09 09:48:44;;;;;;;8.85;1.55;;;14.50;70.40;;;;;;4982643;28;82707;-70
2023/03/09 09:51:33;;;;;;;3.92;0.20;;;14.50;71.80;;;;;;4990359;28;82482;-72
2023/03/09 09:54:20;;;;;;;2.88;0.20;;;14.40;70.20;;;;;;4990117;28;82420;-69
2023/03/09 09:56:50;;;;;;;3.90;0.40;;;14.40;70.10;;;;;;4991818;28;82178;-72
2023/03/09 09:59:25;;;;;;;5.65;0.52;;;14.40;68.60;;;;;;5000953;28;84055;-72
2023/03/09 10:02:23;;;;;;;3.78;0.40;;;14.40;69.00;;;;;;4973666;28;83848;-70
2023/03/09 10:04:56;;;;;;;5.88;0.60;;;14.50;67.70;;;;;;4990566;28;85366;-71
2023/03/09 10:07:23;;;;;;;3.72;0.50;;;14.50;68.70;;;;;;5002159;28;82025;-70
2023/03/09 10:10:00;;;;;;;5.88;0.35;;;14.60;69.00;;;;;;5002311;28;82341;-69
2023/03/09 10:12:26;;;;;;;3.17;0.32;;;14.60;68.60;;;;;;4999615;28;82359;-70
2023/03/09 10:14:59;;;;;;;5.10;0.30;;;14.70;70.60;;;;;;4983177;28;82901;-72
2023/03/09 10:17:27;;;;;;;3.03;0.15;;;14.90;69.10;;;;;;4987314;28;81370;-70
2023/03/09 10:19:54;;;;;;;3.03;0.20;;;15.00;66.30;;;;;;4981962;28;83139;-71
2023/03/09 10:22:24;;;;;;;2.03;0.40;;;15.30;67.70;;;;;;4982312;28;82402;-69
2023/03/09 10:24:52;;;;;;;2.38;0.20;;;15.40;67.30;;;;;;4981888;28;83003;-72
2023/03/09 10:27:35;;;;;;;1.60;0.35;;;15.60;66.80;;;;;;4987842;28;82200;-70
2023/03/09 10:30:09;;;;;;;7.88;0.25;;;15.70;66.00;;;;;;4990192;28;82456;-70
2023/03/09 10:32:51;;;;;;;4.03;0.20;;;15.70;64.70;;;;;;5001722;28;82905;-71
2023/03/09 10:35:43;;;;;;;5.65;0.22;;;15.80;61.60;;;;;;4977578;28;82328;-71
2023/03/09 10:38:13;;;;;;;3.65;0.30;;;15.90;60.90;;;;;;4984161;28;82152;-71
2023/03/09 10:40:57;;;;;;;4.95;0.20;;;15.90;62.80;;;;;;4998103;28;83477;-71
2023/03/09 10:43:29;;;;;;;4.65;0.28;;;15.90;60.60;;;;;;5002250;28;81720;-70
2023/03/09 10:46:07;;;;;;;4.75;0.20;;;15.70;62.00;;;;;;4983859;28;82247;-72
2023/03/09 10:48:32;;;;;;;3.97;0.20;;;15.60;61.20;;;;;;4979091;28;83196;-71
2023/03/09 10:50:59;;;;;;;2.45;0.20;;;15.50;64.10;;;;;;4971085;28;83646;-70
2023/03/09 10:53:31;;;;;;;2.88;0.15;;;15.50;63.10;;;;;;4974708;28;83677;-69
2023/03/09 10:56:11;;;;;;;3.13;0.20;;;15.50;61.30;;;;;;4975684;28;82463;-72
2023/03/09 10:58:37;;;;;;;3.47;0.20;;;15.40;61.10;;;;;;4981847;28;82123;-71
2023/03/09 11:01:18;;;;;;;3.17;0.25;;;15.30;61.70;;;;;;4990745;28;82548;-71
2023/03/09 11:03:44;;;;;;;6.22;0.20;;;15.40;63.30;;;;;;4981140;28;82005;-70
2023/03/09 11:06:12;;;;;;;3.45;0.30;;;15.40;62.80;;;;;;4981553;28;81988;-71
2023/03/09 11:08:42;;;;;;;3.15;0.30;;;15.30;61.70;;;;;;4981088;28;81745;-70
2023/03/09 11:11:20;;;;;;;3.53;0.40;;;15.40;62.80;;;;;;4989838;28;82998;-68
2023/03/09 11:13:46;;;;;;;4.88;0.30;;;15.30;61.90;;;;;;4976354;28;82851;-70
2023/03/09 11:16:21;;;;;;;6.55;0.85;;;15.20;63.10;;;;;;5000439;28;83161;-68
2023/03/09 11:18:48;;;;;;;4.68;0.32;;;15.20;64.40;;;;;;4967776;28;83908;-70
2023/03/09 11:21:22;;;;;;;4.65;0.40;;;15.20;64.30;;;;;;4976233;28;83192;-70
2023/03/09 11:23:53;;;;;;;4.82;0.40;;;15.20;64.00;;;;;;4971222;28;82833;-70
2023/03/09 11:26:27;;;;;;;5.25;0.43;;;15.10;63.90;;;;;;4968411;28;84591;-71
2023/03/09 11:28:55;;;;;;;4.10;0.50;;;15.10;64.30;;;;;;4967013;28;82163;-68
2023/03/09 11:31:30;;;;;;;6.93;0.70;;;15.10;64.30;;;;;;4963537;28;84195;-71
2023/03/09 11:33:57;;;;;;;5.68;0.55;;;15.10;63.20;;;;;;4966719;28;82278;-70
2023/03/09 11:36:33;;;;;;;2.63;0.20;;;15.00;64.10;;;;;;4970663;28;84093;-70
2023/03/09 11:39:03;;;;;;;3.92;0.20;;;15.00;64.10;;;;;;4967849;28;82252;-71
2023/03/09 11:41:33;;;;;;;4.35;0.20;;;14.90;61.80;;;;;;4964650;28;84032;-70
2023/03/09 11:44:37;;;;;;;;;;;14.80;63.40;;;;;;4985946;28;83826;-71
2023/03/09 11:47:10;;;;;;;1.92;0.20;;;15.10;65.40;;;;;;4975434;28;82771;-70
2023/03/09 11:49:37;;;;;;;2.88;0.20;;;15.40;63.00;;;;;;4974789;28;82561;-70
2023/03/09 11:52:07;;;;;;;3.35;0.13;;;15.60;62.60;;;;;;4992121;28;82363;-72
2023/03/09 11:54:35;;;;;;;3.35;0.30;;;15.70;61.00;;;;;;4979778;28;83911;-70
2023/03/09 11:57:07;;;;;;;4.05;0.20;;;15.80;62.20;;;;;;4977275;28;84539;-72
2023/03/09 11:59:43;;;;;;;5.80;0.20;;;15.90;61.00;;;;;;4964315;28;82196;-71
2023/03/09 12:02:30;;;;;;;6.78;0.22;;;15.90;61.20;;;;;;4962422;28;83062;-73
2023/03/09 12:04:55;;;;;;;5.43;0.20;;;15.90;62.30;;;;;;4961910;28;84153;-69
2023/03/09 12:07:40;;;;;;;3.05;0.20;;;15.90;60.20;;;;;;4965924;28;83960;-72
2023/03/09 12:10:25;;;;;;;5.40;0.40;;;15.90;60.90;;;;;;4981883;28;83606;-70
2023/03/09 12:13:04;;;;;;;6.57;0.25;;;15.80;59.10;;;;;;4992196;28;82552;-70
2023/03/09 12:15:39;;;;;;;6.13;0.57;;;15.90;60.10;;;;;;4973129;28;82677;-72
2023/03/09 12:18:14;;;;;;;3.35;0.30;;;15.90;59.20;;;;;;4983083;28;82342;-70
2023/03/09 12:20:48;;;;;;;6.90;0.40;;;15.90;59.10;;;;;;4968223;28;82628;-72
2023/03/09 12:23:35;;;;;;;5.88;0.30;;;15.90;60.10;;;;;;4979594;28;84645;-71
2023/03/09 12:26:04;;;;;;;3.45;0.32;;;16.10;61.60;;;;;;4973483;28;82285;-71
2023/03/09 12:28:30;;;;;;;1.67;0.17;;;16.30;60.30;;;;;;4978531;28;82527;-71
2023/03/09 12:30:57;;;;;;;3.65;0.30;;;16.60;62.80;;;;;;4978633;28;81997;-70
2023/03/09 12:33:46;;;;;;;3.40;0.30;;;17.00;60.80;;;;;;4974932;28;83837;-70
2023/03/09 12:36:32;;;;;;;3.58;0.30;;;17.50;59.60;;;;;;4977514;28;83852;-71
2023/03/09 12:39:22;;;;;;;4.78;0.38;;;17.50;57.20;;;;;;4980657;28;82208;-70
2023/03/09 12:42:03;;;;;;;3.05;0.20;;;17.80;59.40;;;;;;4980195;28;82400;-70
2023/03/09 12:44:44;;;;;;;2.90;0.13;;;17.80;57.60;;;;;;4973778;28;83207;-72
2023/03/09 12:47:28;;;;;;;4.18;0.30;;;17.70;54.80;;;;;;4976465;28;82783;-70
2023/03/09 12:49:56;;;;;;;2.05;0.28;;;17.90;54.20;;;;;;4975166;28;82229;-71
2023/03/09 12:52:27;;;;;;;3.40;0.15;;;18.00;55.40;;;;;;4980938;28;81735;-71
2023/03/09 12:55:01;;;;;;;4.35;0.30;;;18.20;52.30;;;;;;4976903;28;83164;-71
2023/03/09 12:57:27;;;;;;;3.60;0.20;;;18.40;52.30;;;;;;4981344;28;83227;-71